Time;durP1;ratioP1;P1;durP2;ratioP2;P2;SDS_P1;SDS_P2;PMS_P1;PMS_P2;Temp;Humidity;BMP_temperature;BMP_pressure;BME280_temperature;BME280_humidity;BME280_pressure;Samples;Min_cycle;Max_cycle;Signal;HPM_P1;HPM_P2
2023/04/22 00:00:15;;;;;;;21.83;7.93;;;;;;;;;;4373512;32;318298;-82
2023/04/22 00:02:43;;;;;;;17.63;7.33;;;;;;;;;;4383851;32;318593;-82
2023/04/22 00:05:12;;;;;;;15.37;7.10;;;;;;;;;;4374053;32;318334;-82
2023/04/22 00:07:41;;;;;;;15.10;7.17;;;;;;;;;;4383149;32;323979;-81
2023/04/22 00:10:12;;;;;;;13.48;7.18;;;;;;;;;;4373390;32;318605;-81
2023/04/22 00:12:41;;;;;;;10.43;7.27;;;;;;;;;;4383531;32;318454;-82
2023/04/22 00:15:10;;;;;;;11.27;7.07;;;;;;;;;;4372353;32;318206;-83
2023/04/22 00:17:37;;;;;;;14.77;6.17;;;;;;;;;;4383616;32;318647;-82
2023/04/22 00:20:06;;;;;;;18.07;6.40;;;;;;;;;;4372278;32;318445;-82
2023/04/22 00:22:33;;;;;;;12.20;6.17;;;;;;;;;;4382165;32;318454;-82
2023/04/22 00:25:02;;;;;;;13.02;6.20;;;;;;;;;;4372428;32;343195;-82
2023/04/22 00:27:29;;;;;;;13.97;6.23;;;;;;;;;;4382269;32;318492;-82
2023/04/22 00:29:58;;;;;;;11.97;5.67;;;;;;;;;;4371203;32;347498;-83
2023/04/22 00:32:25;;;;;;;12.33;6.60;;;;;;;;;;4383184;32;318328;-83
2023/04/22 00:34:52;;;;;;;11.63;6.70;;;;;;;;;;4373529;32;318174;-84
2023/04/22 00:37:19;;;;;;;14.63;7.20;;;;;;;;;;4381939;32;318423;-81
2023/04/22 00:39:46;;;;;;;10.70;6.80;;;;;;;;;;4380849;32;318119;-83
2023/04/22 00:42:13;;;;;;;12.77;6.33;;;;;;;;;;4371332;32;341813;-84
2023/04/22 00:44:41;;;;;;;18.60;7.40;;;;;;;;;;4382435;32;318268;-81
2023/04/22 00:47:09;;;;;;;15.87;9.07;;;;;;;;;;4373299;32;318350;-82
2023/04/22 00:49:36;;;;;;;14.00;10.90;;;;;;;;;;4382945;32;317376;-82
2023/04/22 00:52:03;;;;;;;20.00;10.10;;;;;;;;;;4373340;32;319176;-83
2023/04/22 00:54:31;;;;;;;22.67;11.90;;;;;;;;;;4397348;32;319309;-82
2023/04/22 00:56:59;;;;;;;25.03;10.30;;;;;;;;;;4387744;32;319564;-81
2023/04/22 00:59:26;;;;;;;16.23;10.10;;;;;;;;;;4397541;32;319703;-81
2023/04/22 01:01:53;;;;;;;13.17;9.30;;;;;;;;;;4387940;32;319464;-82
2023/04/22 01:04:23;;;;;;;14.77;10.60;;;;;;;;;;4397984;32;317704;-83
2023/04/22 01:06:52;;;;;;;23.70;11.83;;;;;;;;;;4387528;32;319224;-83
2023/04/22 01:09:19;;;;;;;23.73;12.43;;;;;;;;;;4397460;32;319297;-81
2023/04/22 01:11:46;;;;;;;21.37;11.37;;;;;;;;;;4396510;32;319195;-82
2023/04/22 01:14:14;;;;;;;24.17;11.10;;;;;;;;;;4386685;32;318712;-83
2023/04/22 01:16:42;;;;;;;22.27;10.57;;;;;;;;;;4397882;32;318937;-83
2023/04/22 01:19:10;;;;;;;25.87;10.67;;;;;;;;;;4386843;32;319165;-81
2023/04/22 01:21:39;;;;;;;19.67;10.23;;;;;;;;;;4396434;32;319199;-83
2023/04/22 01:24:08;;;;;;;154.10;64.03;;;;;;;;;;4386171;32;319558;-81
2023/04/22 01:26:36;;;;;;;65.57;29.17;;;;;;;;;;4396295;32;320270;-83
2023/04/22 01:29:04;;;;;;;61.17;28.50;;;;;;;;;;4387538;32;318490;-82
2023/04/22 01:31:31;;;;;;;45.43;23.33;;;;;;;;;;4388528;32;325147;-83
2023/04/22 01:33:58;;;;;;;82.10;35.40;;;;;;;;;;4377144;32;319212;-83
2023/04/22 01:36:26;;;;;;;59.23;28.80;;;;;;;;;;4397419;32;319546;-83
2023/04/22 01:38:52;;;;;;;56.30;26.60;;;;;;;;;;4387113;32;319549;-81
2023/04/22 01:41:21;;;;;;;48.87;24.57;;;;;;;;;;4396062;32;318878;-81
2023/04/22 01:43:48;;;;;;;49.37;22.87;;;;;;;;;;4397319;32;319088;-81
2023/04/22 01:46:17;;;;;;;70.73;28.53;;;;;;;;;;4382908;32;418858;-83
2023/04/22 01:48:49;;;;;;;52.83;25.77;;;;;;;;;;4397416;32;319241;-81
2023/04/22 01:51:16;;;;;;;33.00;17.17;;;;;;;;;;4384527;32;420036;-83
2023/04/22 01:53:43;;;;;;;26.87;14.00;;;;;;;;;;4389120;32;318445;-81
2023/04/22 01:56:10;;;;;;;23.13;14.53;;;;;;;;;;4372791;32;319639;-84
2023/04/22 01:58:39;;;;;;;29.90;13.17;;;;;;;;;;4382294;32;318656;-83
2023/04/22 02:01:06;;;;;;;24.50;13.27;;;;;;;;;;4372414;32;319316;-83
2023/04/22 02:03:33;;;;;;;21.50;11.73;;;;;;;;;;4383580;32;319395;-83
2023/04/22 02:05:59;;;;;;;22.60;13.13;;;;;;;;;;4375459;32;319286;-83
2023/04/22 02:08:26;;;;;;;23.87;12.43;;;;;;;;;;4384883;32;319726;-82
2023/04/22 02:10:53;;;;;;;21.73;12.23;;;;;;;;;;4371708;32;319509;-82
2023/04/22 02:13:20;;;;;;;23.87;13.77;;;;;;;;;;4381809;32;318642;-83
2023/04/22 02:15:48;;;;;;;26.40;13.33;;;;;;;;;;4408529;32;319582;-83
2023/04/22 02:18:16;;;;;;;27.70;13.97;;;;;;;;;;4385202;32;420463;-82
2023/04/22 02:20:44;;;;;;;26.50;13.97;;;;;;;;;;4399794;32;319593;-83
2023/04/22 02:23:11;;;;;;;16.83;11.80;;;;;;;;;;4390152;32;318888;-82
2023/04/22 02:25:38;;;;;;;25.53;12.87;;;;;;;;;;4399714;32;319350;-81
2023/04/22 02:28:04;;;;;;;17.33;12.60;;;;;;;;;;4390199;32;319300;-82
2023/04/22 02:30:31;;;;;;;18.20;12.97;;;;;;;;;;4399780;32;319086;-82
2023/04/22 02:33:00;;;;;;;22.03;14.43;;;;;;;;;;4389283;32;319331;-84
2023/04/22 02:35:26;;;;;;;24.03;13.93;;;;;;;;;;4399919;32;318563;-83
2023/04/22 02:37:53;;;;;;;32.87;13.27;;;;;;;;;;4374702;32;319782;-83
2023/04/22 02:40:20;;;;;;;27.00;15.93;;;;;;;;;;4383154;32;318619;-81
2023/04/22 02:42:48;;;;;;;35.67;14.97;;;;;;;;;;4383315;32;318651;-81
2023/04/22 02:45:15;;;;;;;22.33;13.97;;;;;;;;;;4374621;32;318609;-81
2023/04/22 02:47:41;;;;;;;23.17;13.30;;;;;;;;;;4384926;32;319260;-83
2023/04/22 02:50:11;;;;;;;24.40;13.70;;;;;;;;;;4373625;32;318587;-82
2023/04/22 02:52:38;;;;;;;31.07;14.60;;;;;;;;;;4389051;32;319062;-82
2023/04/22 02:55:05;;;;;;;21.57;12.97;;;;;;;;;;4389521;32;319249;-82
2023/04/22 02:57:32;;;;;;;29.07;12.87;;;;;;;;;;4401039;32;319605;-83
2023/04/22 02:59:59;;;;;;;18.30;11.80;;;;;;;;;;4390128;32;319453;-82
2023/04/22 03:02:25;;;;;;;19.83;11.13;;;;;;;;;;4399724;32;319067;-81
2023/04/22 03:04:54;;;;;;;17.23;11.43;;;;;;;;;;4389835;32;319432;-82
2023/04/22 03:07:23;;;;;;;14.33;11.33;;;;;;;;;;4400868;32;318818;-83
2023/04/22 03:09:50;;;;;;;21.97;11.57;;;;;;;;;;4387054;32;319112;-84
2023/04/22 03:12:18;;;;;;;17.50;10.43;;;;;;;;;;4388441;32;319158;-83
2023/04/22 03:14:45;;;;;;;20.50;10.67;;;;;;;;;;4395372;32;318295;-80
2023/04/22 03:17:12;;;;;;;23.27;11.37;;;;;;;;;;4388269;32;332041;-82
2023/04/22 03:19:38;;;;;;;12.50;9.67;;;;;;;;;;4402365;32;319299;-82
2023/04/22 03:22:05;;;;;;;19.10;10.93;;;;;;;;;;4388911;32;317956;-82
2023/04/22 03:24:33;;;;;;;19.93;10.93;;;;;;;;;;4400538;32;317474;-82
2023/04/22 03:27:01;;;;;;;23.40;10.80;;;;;;;;;;4390137;32;318925;-81
2023/04/22 03:29:27;;;;;;;14.37;10.10;;;;;;;;;;4389683;32;319245;-81
2023/04/22 03:31:54;;;;;;;25.10;14.00;;;;;;;;;;4386635;32;319048;-80
2023/04/22 03:34:21;;;;;;;25.77;16.00;;;;;;;;;;4413164;32;318078;-82
2023/04/22 03:36:47;;;;;;;35.47;15.93;;;;;;;;;;4416015;32;318096;-83
2023/04/22 03:39:15;;;;;;;30.10;15.37;;;;;;;;;;4401362;32;418577;-82
2023/04/22 03:41:43;;;;;;;47.60;22.07;;;;;;;;;;4414164;32;318989;-82
2023/04/22 03:44:10;;;;;;;28.13;18.10;;;;;;;;;;4391093;32;318679;-83
2023/04/22 03:46:37;;;;;;;31.13;16.50;;;;;;;;;;4399500;32;319170;-83
2023/04/22 03:49:04;;;;;;;29.80;14.00;;;;;;;;;;4389339;32;319186;-82
2023/04/22 03:51:30;;;;;;;21.93;14.03;;;;;;;;;;4399646;32;319124;-82
2023/04/22 03:53:57;;;;;;;21.90;13.23;;;;;;;;;;4373694;32;318611;-82
2023/04/22 03:56:24;;;;;;;21.47;12.80;;;;;;;;;;4383500;32;331570;-81
2023/04/22 03:58:52;;;;;;;25.90;13.67;;;;;;;;;;4370578;32;344391;-83
2023/04/22 04:01:19;;;;;;;25.67;13.40;;;;;;;;;;4382476;32;319583;-83
2023/04/22 04:03:46;;;;;;;27.03;14.50;;;;;;;;;;4383868;32;318962;-82
2023/04/22 04:06:12;;;;;;;31.17;15.43;;;;;;;;;;4373588;32;319244;-81
2023/04/22 04:08:39;;;;;;;28.90;14.33;;;;;;;;;;4381939;32;319450;-81
2023/04/22 04:11:06;;;;;;;27.43;14.20;;;;;;;;;;4372281;32;318680;-83
2023/04/22 04:13:33;;;;;;;22.97;14.77;;;;;;;;;;4385960;32;319365;-83
2023/04/22 04:16:02;;;;;;;30.27;14.83;;;;;;;;;;4388476;32;319459;-82
2023/04/22 04:18:29;;;;;;;74.17;42.70;;;;;;;;;;4397241;32;319116;-81
2023/04/22 04:20:56;;;;;;;80.83;53.83;;;;;;;;;;4387256;32;319171;-82
2023/04/22 04:23:23;;;;;;;71.83;50.00;;;;;;;;;;4398086;32;319361;-83
2023/04/22 04:25:50;;;;;;;69.90;43.63;;;;;;;;;;4387810;32;319582;-84
2023/04/22 04:28:18;;;;;;;29.43;18.37;;;;;;;;;;4397013;32;319490;-81
2023/04/22 04:30:45;;;;;;;27.23;15.43;;;;;;;;;;4397986;32;319112;-83
2023/04/22 04:33:15;;;;;;;22.73;13.87;;;;;;;;;;4387271;32;319443;-84
2023/04/22 04:35:43;;;;;;;28.27;14.17;;;;;;;;;;4398103;32;319503;-83
2023/04/22 04:38:10;;;;;;;30.63;15.17;;;;;;;;;;4386996;32;319372;-83
2023/04/22 04:40:37;;;;;;;31.80;16.33;;;;;;;;;;4396509;32;319297;-81
2023/04/22 04:43:07;;;;;;;25.07;13.73;;;;;;;;;;4388218;32;319373;-83
2023/04/22 04:45:35;;;;;;;26.17;15.00;;;;;;;;;;4397956;32;319694;-81
2023/04/22 04:48:02;;;;;;;26.27;17.33;;;;;;;;;;4387039;32;319607;-82
2023/04/22 04:50:30;;;;;;;32.27;19.10;;;;;;;;;;4395271;32;318688;-83
2023/04/22 04:52:58;;;;;;;35.00;24.57;;;;;;;;;;4380091;32;319692;-81
2023/04/22 04:55:26;;;;;;;37.13;24.83;;;;;;;;;;4382576;32;318797;-81
2023/04/22 04:57:52;;;;;;;43.57;23.97;;;;;;;;;;4371289;32;318464;-83
2023/04/22 05:00:19;;;;;;;44.47;23.23;;;;;;;;;;4381629;32;319410;-81
2023/04/22 05:02:46;;;;;;;44.83;25.03;;;;;;;;;;4382789;32;319479;-83
2023/04/22 05:05:13;;;;;;;34.27;22.67;;;;;;;;;;4373395;32;319636;-83
2023/04/22 05:07:41;;;;;;;27.90;20.47;;;;;;;;;;4396146;32;325026;-83
2023/04/22 05:10:08;;;;;;;31.97;20.97;;;;;;;;;;4386279;32;319572;-84
2023/04/22 05:12:35;;;;;;;26.33;19.40;;;;;;;;;;4397484;32;334273;-81
2023/04/22 05:15:02;;;;;;;34.53;21.10;;;;;;;;;;4397300;32;319587;-81
2023/04/22 05:17:29;;;;;;;40.60;20.57;;;;;;;;;;4384762;32;419538;-81
2023/04/22 05:19:56;;;;;;;37.73;19.03;;;;;;;;;;4396570;32;319416;-81
2023/04/22 05:22:23;;;;;;;29.60;18.20;;;;;;;;;;4386123;32;318914;-81
2023/04/22 05:24:51;;;;;;;29.30;17.23;;;;;;;;;;4397197;32;319734;-82
2023/04/22 05:27:18;;;;;;;35.20;17.63;;;;;;;;;;4387480;32;319196;-81
2023/04/22 05:29:45;;;;;;;26.80;15.87;;;;;;;;;;4397333;32;319269;-81
2023/04/22 05:32:12;;;;;;;32.47;18.50;;;;;;;;;;4387539;32;319651;-83
2023/04/22 05:34:39;;;;;;;30.37;20.00;;;;;;;;;;4397008;32;318853;-81
2023/04/22 05:37:07;;;;;;;28.40;14.87;;;;;;;;;;4387409;32;319417;-82
2023/04/22 05:39:33;;;;;;;34.03;15.37;;;;;;;;;;4398446;32;324575;-81
2023/04/22 05:42:02;;;;;;;25.00;15.07;;;;;;;;;;4400340;32;319524;-80
2023/04/22 05:44:29;;;;;;;26.77;17.30;;;;;;;;;;4386363;32;420138;-81
2023/04/22 05:46:55;;;;;;;28.20;18.67;;;;;;;;;;4399227;32;319435;-81
2023/04/22 05:49:22;;;;;;;33.10;18.97;;;;;;;;;;4387894;32;319070;-83
2023/04/22 05:51:50;;;;;;;32.57;18.40;;;;;;;;;;4400433;32;319438;-83
2023/04/22 05:54:17;;;;;;;25.10;16.50;;;;;;;;;;4374057;32;318560;-81
2023/04/22 05:56:44;;;;;;;29.00;16.27;;;;;;;;;;4388476;32;319422;-81
2023/04/22 05:59:12;;;;;;;27.87;17.00;;;;;;;;;;4375128;32;319309;-83
2023/04/22 06:01:39;;;;;;;22.17;14.17;;;;;;;;;;4384917;32;319099;-81
2023/04/22 06:04:05;;;;;;;26.90;14.33;;;;;;;;;;4375613;32;320296;-84
2023/04/22 06:06:32;;;;;;;27.27;14.43;;;;;;;;;;4392349;32;319434;-82
2023/04/22 06:08:59;;;;;;;22.90;16.53;;;;;;;;;;4399770;32;319332;-81
2023/04/22 06:11:27;;;;;;;21.53;15.30;;;;;;;;;;4389203;32;319381;-82
2023/04/22 06:13:53;;;;;;;27.10;14.47;;;;;;;;;;4398520;32;319335;-79
2023/04/22 06:16:23;;;;;;;21.80;13.80;;;;;;;;;;4390036;32;319414;-82
2023/04/22 06:18:50;;;;;;;21.23;14.43;;;;;;;;;;4400112;32;319737;-83
2023/04/22 06:21:17;;;;;;;31.30;15.23;;;;;;;;;;4389983;32;319301;-80
2023/04/22 06:23:44;;;;;;;30.83;17.13;;;;;;;;;;4398299;32;319206;-80
2023/04/22 06:26:10;;;;;;;24.30;16.33;;;;;;;;;;4387794;32;353615;-82
2023/04/22 06:28:37;;;;;;;22.13;16.40;;;;;;;;;;4399842;32;319295;-84
2023/04/22 06:31:04;;;;;;;24.17;15.93;;;;;;;;;;4389778;32;319690;-82
2023/04/22 06:33:33;;;;;;;38.87;16.30;;;;;;;;;;4399209;32;319270;-82
2023/04/22 06:36:00;;;;;;;26.77;15.13;;;;;;;;;;4400127;32;319609;-83
2023/04/22 06:38:27;;;;;;;30.23;14.37;;;;;;;;;;4389680;32;319271;-82
2023/04/22 06:40:54;;;;;;;24.40;14.20;;;;;;;;;;4398370;32;319467;-80
2023/04/22 06:43:20;;;;;;;28.53;13.90;;;;;;;;;;4388862;32;319138;-81
2023/04/22 06:45:47;;;;;;;30.93;13.97;;;;;;;;;;4399489;32;318702;-82
2023/04/22 06:48:14;;;;;;;19.63;12.80;;;;;;;;;;4388273;32;319016;-80
2023/04/22 06:50:42;;;;;;;22.53;14.33;;;;;;;;;;4399044;32;319521;-80
2023/04/22 06:53:09;;;;;;;21.33;12.20;;;;;;;;;;4389541;32;319331;-82
2023/04/22 06:55:36;;;;;;;26.40;12.30;;;;;;;;;;4399387;32;318662;-81
2023/04/22 06:58:03;;;;;;;27.03;12.30;;;;;;;;;;4399591;32;320169;-80
2023/04/22 07:00:30;;;;;;;19.40;11.50;;;;;;;;;;4386242;32;419780;-80
2023/04/22 07:02:56;;;;;;;20.27;11.77;;;;;;;;;;4398361;32;319411;-80
2023/04/22 07:05:23;;;;;;;29.53;12.40;;;;;;;;;;4389845;32;319141;-80
2023/04/22 07:07:51;;;;;;;19.77;11.53;;;;;;;;;;4399088;32;319249;-82
2023/04/22 07:10:19;;;;;;;21.57;10.50;;;;;;;;;;4388411;32;319383;-82
2023/04/22 07:12:46;;;;;;;23.93;11.13;;;;;;;;;;4399513;32;319413;-82
2023/04/22 07:15:13;;;;;;;18.47;10.40;;;;;;;;;;4388905;32;319611;-81
2023/04/22 07:17:40;;;;;;;21.53;10.57;;;;;;;;;;4399000;32;318688;-83
2023/04/22 07:20:08;;;;;;;18.40;9.37;;;;;;;;;;4388332;32;318729;-83
2023/04/22 07:22:35;;;;;;;15.73;9.80;;;;;;;;;;4399037;32;317564;-81
2023/04/22 07:25:03;;;;;;;21.80;11.33;;;;;;;;;;4398036;32;318403;-84
2023/04/22 07:27:30;;;;;;;19.73;10.60;;;;;;;;;;4381180;32;420362;-81
2023/04/22 07:29:57;;;;;;;20.73;10.87;;;;;;;;;;4406872;32;319401;-82
2023/04/22 07:32:23;;;;;;;20.57;11.33;;;;;;;;;;4387841;32;319157;-82
2023/04/22 07:34:50;;;;;;;19.13;9.77;;;;;;;;;;4399028;32;319187;-80
2023/04/22 07:37:17;;;;;;;13.20;9.85;;;;;;;;;;4388683;32;318569;-80
2023/04/22 07:39:44;;;;;;;22.33;9.17;;;;;;;;;;4398841;32;318424;-81
2023/04/22 07:42:12;;;;;;;19.60;9.00;;;;;;;;;;4387726;32;318361;-82
2023/04/22 07:44:39;;;;;;;17.85;7.60;;;;;;;;;;4396025;32;318400;-81
2023/04/22 07:47:07;;;;;;;17.13;8.23;;;;;;;;;;4379312;32;317285;-80
2023/04/22 07:49:33;;;;;;;15.50;8.70;;;;;;;;;;4397668;32;317643;-82
2023/04/22 07:52:00;;;;;;;20.95;9.80;;;;;;;;;;4397898;32;318771;-80
2023/04/22 07:54:27;;;;;;;25.45;10.00;;;;;;;;;;4373935;32;317641;-82
2023/04/22 07:56:54;;;;;;;17.95;8.75;;;;;;;;;;4383612;32;319281;-81
2023/04/22 07:59:22;;;;;;;16.60;8.25;;;;;;;;;;4372873;32;318153;-84
2023/04/22 08:01:49;;;;;;;21.55;8.27;;;;;;;;;;4382757;32;317983;-81
2023/04/22 08:04:16;;;;;;;22.77;10.20;;;;;;;;;;4373131;32;318317;-82
2023/04/22 08:06:42;;;;;;;10.73;5.95;;;;;;;;;;4389525;32;319639;-82
2023/04/22 08:09:09;;;;;;;17.05;8.18;;;;;;;;;;4388928;32;318860;-80
2023/04/22 08:11:36;;;;;;;14.80;7.93;;;;;;;;;;4398630;32;318375;-81
2023/04/22 08:14:03;;;;;;;13.75;7.25;;;;;;;;;;4398412;32;318740;-80
2023/04/22 08:16:31;;;;;;;22.45;8.38;;;;;;;;;;4384556;32;419202;-82
2023/04/22 08:18:58;;;;;;;15.67;6.23;;;;;;;;;;4398696;32;318352;-80
2023/04/22 08:21:26;;;;;;;14.38;6.00;;;;;;;;;;4387747;32;318190;-80
2023/04/22 08:23:53;;;;;;;15.57;6.03;;;;;;;;;;4397344;32;318276;-82
2023/04/22 08:26:20;;;;;;;10.52;5.65;;;;;;;;;;4386640;32;318096;-82
2023/04/22 08:28:47;;;;;;;19.00;6.12;;;;;;;;;;4398135;32;317749;-82
2023/04/22 08:31:14;;;;;;;12.57;5.62;;;;;;;;;;4388551;32;318220;-81
2023/04/22 08:33:42;;;;;;;14.70;6.22;;;;;;;;;;4397585;32;318537;-84
2023/04/22 08:36:10;;;;;;;16.52;6.78;;;;;;;;;;4387595;32;318692;-81
2023/04/22 08:38:37;;;;;;;13.65;5.22;;;;;;;;;;4398276;32;318176;-83
2023/04/22 08:41:06;;;;;;;9.38;4.07;;;;;;;;;;4388235;32;318255;-81
2023/04/22 08:43:33;;;;;;;14.90;4.30;;;;;;;;;;4395163;32;316545;-84
2023/04/22 08:46:00;;;;;;;14.63;4.37;;;;;;;;;;4396617;32;317525;-84
2023/04/22 08:48:27;;;;;;;9.90;4.20;;;;;;;;;;4388368;32;318285;-81
2023/04/22 08:50:57;;;;;;;11.82;5.20;;;;;;;;;;4398248;32;316669;-85
2023/04/22 08:53:25;;;;;;;11.73;4.12;;;;;;;;;;4387916;32;318010;-81
2023/04/22 08:55:51;;;;;;;10.38;4.60;;;;;;;;;;4397918;32;318603;-82
2023/04/22 08:58:18;;;;;;;9.23;3.85;;;;;;;;;;4388411;32;318369;-82
2023/04/22 09:00:45;;;;;;;9.63;3.62;;;;;;;;;;4395115;32;354847;-82
2023/04/22 09:03:12;;;;;;;8.50;4.60;;;;;;;;;;4387112;32;317508;-82
2023/04/22 09:05:40;;;;;;;11.68;4.45;;;;;;;;;;4398067;32;316423;-84
2023/04/22 09:08:10;;;;;;;13.10;4.50;;;;;;;;;;4387942;32;318726;-84
2023/04/22 09:10:39;;;;;;;5.47;3.03;;;;;;;;;;4397295;32;318215;-83
2023/04/22 09:13:08;;;;;;;5.60;3.35;;;;;;;;;;4387805;32;316624;-83
2023/04/22 09:15:35;;;;;;;8.25;3.15;;;;;;;;;;4396103;32;316716;-82
2023/04/22 09:18:05;;;;;;;9.40;3.55;;;;;;;;;;4397906;32;317206;-83
2023/04/22 09:20:32;;;;;;;25.20;4.62;;;;;;;;;;4383926;32;416073;-81
2023/04/22 09:23:06;;;;;;;16.15;4.28;;;;;;;;;;4397565;32;318173;-83
2023/04/22 09:25:35;;;;;;;10.65;4.25;;;;;;;;;;4384871;32;417540;-83
2023/04/22 09:28:02;;;;;;;10.68;3.58;;;;;;;;;;4395360;32;354635;-81
2023/04/22 09:30:30;;;;;;;11.60;3.60;;;;;;;;;;4383891;32;407171;-81
2023/04/22 09:32:58;;;;;;;9.18;3.30;;;;;;;;;;4397597;32;318480;-83
2023/04/22 09:35:30;;;;;;;8.02;3.30;;;;;;;;;;4388286;32;317161;-83
2023/04/22 09:37:57;;;;;;;8.82;3.55;;;;;;;;;;4396675;32;317709;-83
2023/04/22 09:40:25;;;;;;;8.77;3.80;;;;;;;;;;4387884;32;317124;-83
2023/04/22 09:42:55;;;;;;;12.52;3.50;;;;;;;;;;4396414;32;317243;-83
2023/04/22 09:45:29;;;;;;;10.73;4.40;;;;;;;;;;4385056;32;316797;-83
2023/04/22 09:47:59;;;;;;;9.18;4.12;;;;;;;;;;4388207;32;318037;-81
2023/04/22 09:50:27;;;;;;;11.20;4.12;;;;;;;;;;4386513;32;317299;-81
2023/04/22 09:52:56;;;;;;;7.15;3.35;;;;;;;;;;4397159;32;318408;-81
2023/04/22 09:55:23;;;;;;;13.32;4.03;;;;;;;;;;4388272;32;317144;-81
2023/04/22 09:57:53;;;;;;;11.77;4.25;;;;;;;;;;4402288;32;318185;-81
2023/04/22 10:00:20;;;;;;;13.20;3.20;;;;;;;;;;4385794;32;318071;-81
2023/04/22 10:02:47;;;;;;;14.15;4.30;;;;;;;;;;4396004;32;317367;-80
2023/04/22 10:05:15;;;;;;;9.53;4.10;;;;;;;;;;4384338;32;326479;-82
2023/04/22 10:07:42;;;;;;;14.73;4.70;;;;;;;;;;4395184;32;356371;-81
2023/04/22 10:10:09;;;;;;;8.13;3.87;;;;;;;;;;4387125;32;318153;-83
2023/04/22 10:12:37;;;;;;;8.90;4.22;;;;;;;;;;4398442;32;317430;-82
2023/04/22 10:15:07;;;;;;;11.38;3.87;;;;;;;;;;4395783;32;319971;-82
2023/04/22 10:17:37;;;;;;;8.15;3.58;;;;;;;;;;4383167;32;417907;-82
2023/04/22 10:20:12;;;;;;;16.05;3.78;;;;;;;;;;4400868;32;317166;-80
2023/04/22 10:22:40;;;;;;;13.13;3.80;;;;;;;;;;4398428;32;418176;-81
2023/04/22 10:25:11;;;;;;;9.35;3.78;;;;;;;;;;4405126;32;317845;-83
2023/04/22 10:27:39;;;;;;;8.30;3.78;;;;;;;;;;4416513;32;315111;-82
2023/04/22 10:30:10;;;;;;;10.98;4.07;;;;;;;;;;4405018;32;360772;-83
2023/04/22 10:32:36;;;;;;;9.82;4.10;;;;;;;;;;4414687;32;316698;-81
2023/04/22 10:35:08;;;;;;;13.00;6.03;;;;;;;;;;4415449;32;316369;-82
2023/04/22 10:37:35;;;;;;;16.42;5.62;;;;;;;;;;4387669;32;416132;-81
2023/04/22 10:40:12;;;;;;;9.43;4.12;;;;;;;;;;4401279;32;318349;-81
2023/04/22 10:42:41;;;;;;;6.57;3.42;;;;;;;;;;4389473;32;416130;-81
2023/04/22 10:45:13;;;;;;;11.70;5.10;;;;;;;;;;4396048;32;368424;-81
2023/04/22 10:47:40;;;;;;;11.02;4.68;;;;;;;;;;4406348;32;318023;-82
2023/04/22 10:50:20;;;;;;;12.20;5.45;;;;;;;;;;4391135;32;318407;-81
2023/04/22 10:52:49;;;;;;;13.62;6.60;;;;;;;;;;4400526;32;318241;-82
2023/04/22 10:55:16;;;;;;;13.45;7.35;;;;;;;;;;4389548;32;318451;-80
2023/04/22 10:57:46;;;;;;;11.25;6.45;;;;;;;;;;4399394;32;318464;-82
2023/04/22 11:00:39;;;;;;;13.30;8.20;;;;;;;;;;4388108;32;317472;-80
2023/04/22 11:03:11;;;;;;;9.63;7.15;;;;;;;;;;4382802;32;318557;-80
2023/04/22 11:05:41;;;;;;;14.23;7.12;;;;;;;;;;4399495;32;317563;-80
2023/04/22 11:08:12;;;;;;;9.57;6.72;;;;;;;;;;4389753;32;317873;-82
2023/04/22 11:10:41;;;;;;;11.65;7.07;;;;;;;;;;4399152;32;326793;-82
2023/04/22 11:13:10;;;;;;;10.90;7.07;;;;;;;;;;4389471;32;318425;-81
2023/04/22 11:15:40;;;;;;;9.40;5.80;;;;;;;;;;4398847;32;318559;-82
2023/04/22 11:18:13;;;;;;;10.53;5.63;;;;;;;;;;4387125;32;317239;-82
2023/04/22 11:20:40;;;;;;;14.80;6.28;;;;;;;;;;4398567;32;318664;-80
2023/04/22 11:23:09;;;;;;;18.27;7.30;;;;;;;;;;4385924;32;435614;-80
2023/04/22 11:25:36;;;;;;;10.07;5.10;;;;;;;;;;4397991;32;351677;-80
2023/04/22 11:28:03;;;;;;;9.02;5.90;;;;;;;;;;4397899;32;317750;-82
2023/04/22 11:30:30;;;;;;;7.70;6.10;;;;;;;;;;4386351;32;377370;-81
2023/04/22 11:33:00;;;;;;;7.62;4.95;;;;;;;;;;4398049;32;317076;-82
2023/04/22 11:35:29;;;;;;;6.53;5.62;;;;;;;;;;4388049;32;327526;-80
2023/04/22 11:37:58;;;;;;;12.45;6.22;;;;;;;;;;4398599;32;317022;-82
2023/04/22 11:40:27;;;;;;;10.18;5.97;;;;;;;;;;4389330;32;318355;-82
2023/04/22 11:42:54;;;;;;;6.85;5.47;;;;;;;;;;4397786;32;318201;-81
2023/04/22 11:45:21;;;;;;;9.00;5.70;;;;;;;;;;4388983;32;317110;-80
2023/04/22 11:47:50;;;;;;;12.63;6.43;;;;;;;;;;4396828;32;316590;-81
2023/04/22 11:50:22;;;;;;;13.05;6.25;;;;;;;;;;4388131;32;318418;-80
2023/04/22 11:52:51;;;;;;;9.27;5.90;;;;;;;;;;4398490;32;318130;-82
2023/04/22 11:55:21;;;;;;;7.32;4.87;;;;;;;;;;4388604;32;334335;-82
2023/04/22 11:57:54;;;;;;;13.38;4.65;;;;;;;;;;4398559;32;316580;-80
2023/04/22 12:00:22;;;;;;;9.38;5.43;;;;;;;;;;4387009;32;337906;-82
2023/04/22 12:03:00;;;;;;;5.18;4.68;;;;;;;;;;4398524;32;317309;-81
2023/04/22 12:05:36;;;;;;;7.03;4.40;;;;;;;;;;4384230;32;316348;-82
2023/04/22 12:08:06;;;;;;;12.63;4.07;;;;;;;;;;4397439;32;316668;-80
2023/04/22 12:10:33;;;;;;;15.15;4.65;;;;;;;;;;4385816;32;418878;-82
2023/04/22 12:13:01;;;;;;;9.95;5.12;;;;;;;;;;4398387;32;317425;-80
2023/04/22 12:15:38;;;;;;;9.45;6.70;;;;;;;;;;4388060;32;317229;-81
2023/04/22 12:18:05;;;;;;;15.20;7.53;;;;;;;;;;4388674;32;317052;-83
2023/04/22 12:20:33;;;;;;;11.75;7.00;;;;;;;;;;4396935;32;318606;-81
2023/04/22 12:23:02;;;;;;;13.43;7.28;;;;;;;;;;4397527;32;318371;-82
2023/04/22 12:25:32;;;;;;;11.00;7.30;;;;;;;;;;4388759;32;318615;-81
2023/04/22 12:27:59;;;;;;;24.90;8.68;;;;;;;;;;4397012;32;317700;-80
2023/04/22 12:30:26;;;;;;;13.90;8.20;;;;;;;;;;4387411;32;318734;-80
2023/04/22 12:32:53;;;;;;;14.23;6.82;;;;;;;;;;4397157;32;318134;-81
2023/04/22 12:35:20;;;;;;;9.43;7.00;;;;;;;;;;4388146;32;318285;-83
2023/04/22 12:37:47;;;;;;;7.82;5.75;;;;;;;;;;4398267;32;317614;-83
2023/04/22 12:40:16;;;;;;;16.42;6.93;;;;;;;;;;4388261;32;317079;-81
2023/04/22 12:42:43;;;;;;;10.00;5.55;;;;;;;;;;4396944;32;354261;-82
2023/04/22 12:45:10;;;;;;;10.77;5.18;;;;;;;;;;4387832;32;318570;-81
2023/04/22 12:47:37;;;;;;;11.52;5.97;;;;;;;;;;4396455;32;342571;-81
2023/04/22 12:50:06;;;;;;;12.15;5.85;;;;;;;;;;4396265;32;318359;-82
2023/04/22 12:52:34;;;;;;;10.80;5.30;;;;;;;;;;4390656;32;417363;-83
2023/04/22 12:55:01;;;;;;;6.15;4.57;;;;;;;;;;4397917;32;318135;-82
2023/04/22 12:57:29;;;;;;;12.18;5.47;;;;;;;;;;4387688;32;317379;-81
2023/04/22 12:59:57;;;;;;;6.18;4.32;;;;;;;;;;4396764;32;317544;-82
2023/04/22 13:02:24;;;;;;;13.35;3.90;;;;;;;;;;4386744;32;317320;-81
2023/04/22 13:04:51;;;;;;;5.43;3.92;;;;;;;;;;4397939;32;318028;-81
2023/04/22 13:07:18;;;;;;;11.57;4.20;;;;;;;;;;4386083;32;317283;-83
2023/04/22 13:09:45;;;;;;;7.72;3.30;;;;;;;;;;4398031;32;317988;-81
2023/04/22 13:12:12;;;;;;;6.35;4.12;;;;;;;;;;4387340;32;317293;-81
2023/04/22 13:17:27;;;;;;;8.88;4.28;;;;;;;;;;4393915;32;316704;-84
2023/04/22 13:19:53;;;;;;;5.28;3.50;;;;;;;;;;4397974;32;316824;-83
2023/04/22 13:22:21;;;;;;;8.13;4.43;;;;;;;;;;4386438;32;317134;-83
2023/04/22 13:24:48;;;;;;;8.68;6.20;;;;;;;;;;4397735;32;317335;-80
2023/04/22 13:27:15;;;;;;;8.82;4.90;;;;;;;;;;4387499;32;317173;-82
2023/04/22 13:29:43;;;;;;;10.02;5.00;;;;;;;;;;4395333;32;316458;-80
2023/04/22 13:32:10;;;;;;;10.27;4.28;;;;;;;;;;4385627;32;318312;-82
2023/04/22 13:34:39;;;;;;;7.10;5.82;;;;;;;;;;4396438;32;318735;-81
2023/04/22 13:37:06;;;;;;;8.02;6.03;;;;;;;;;;4387189;32;320456;-81
2023/04/22 13:39:33;;;;;;;5.57;4.30;;;;;;;;;;4396128;32;316674;-81
2023/04/22 13:42:00;;;;;;;13.23;5.43;;;;;;;;;;4396106;32;317254;-81
2023/04/22 13:44:27;;;;;;;11.85;4.70;;;;;;;;;;4385872;32;326460;-81
2023/04/22 13:46:55;;;;;;;12.48;4.60;;;;;;;;;;4396128;32;318643;-82
2023/04/22 13:49:22;;;;;;;16.42;5.68;;;;;;;;;;4386339;32;317827;-80
2023/04/22 13:51:49;;;;;;;11.55;7.00;;;;;;;;;;4396642;32;318258;-80
2023/04/22 13:54:16;;;;;;;17.48;8.95;;;;;;;;;;4386564;32;318354;-83
2023/04/22 13:56:43;;;;;;;16.85;5.78;;;;;;;;;;4397086;32;318570;-81
2023/04/22 13:59:10;;;;;;;10.35;5.62;;;;;;;;;;4388139;32;318578;-82
2023/04/22 14:01:37;;;;;;;14.85;7.05;;;;;;;;;;4400331;32;318636;-81
2023/04/22 14:04:05;;;;;;;7.90;4.28;;;;;;;;;;4400339;32;318233;-81
2023/04/22 14:06:32;;;;;;;11.32;4.50;;;;;;;;;;4386079;32;416782;-83
2023/04/22 14:08:59;;;;;;;7.65;4.53;;;;;;;;;;4398499;32;318385;-83
2023/04/22 14:11:26;;;;;;;7.25;4.28;;;;;;;;;;4389267;32;316994;-81
2023/04/22 14:13:53;;;;;;;6.50;3.37;;;;;;;;;;4390355;32;316505;-81
2023/04/22 14:16:20;;;;;;;6.95;3.28;;;;;;;;;;4390106;32;317597;-81
2023/04/22 14:18:47;;;;;;;9.63;4.85;;;;;;;;;;4400556;32;317264;-82